createdAt,value
2023-04-26T00:00:58.204Z,3.89
2023-04-26T00:01:58.187Z,3.78
2023-04-26T00:02:58.432Z,3.68
2023-04-26T00:03:58.343Z,3.61
2023-04-26T00:04:58.495Z,3.59
2023-04-26T00:05:58.171Z,3.53
2023-04-26T00:06:58.277Z,3.51
2023-04-26T00:07:58.144Z,3.65
2023-04-26T00:08:58.105Z,3.59
2023-04-26T00:09:58.106Z,3.61
2023-04-26T00:10:58.084Z,3.61
2023-04-26T00:11:58.068Z,3.69
2023-04-26T00:12:58.054Z,3.77
2023-04-26T00:13:58.044Z,3.78
2023-04-26T00:14:58.027Z,3.83
2023-04-26T00:15:58.062Z,3.89
2023-04-26T00:16:58.009Z,3.87
2023-04-26T00:17:58.098Z,3.87
2023-04-26T00:18:57.997Z,3.87
2023-04-26T00:19:57.976Z,3.83
2023-04-26T00:20:57.960Z,3.82
2023-04-26T00:21:57.961Z,3.86
2023-04-26T00:22:57.973Z,3.74
2023-04-26T00:23:57.943Z,3.71
2023-04-26T00:24:57.906Z,3.64
2023-04-26T00:25:57.915Z,3.69
2023-04-26T00:26:57.903Z,3.74
2023-04-26T00:27:57.873Z,3.68
2023-04-26T00:28:57.879Z,3.71
2023-04-26T00:29:57.843Z,3.71
2023-04-26T00:30:57.935Z,3.69
2023-04-26T00:31:57.877Z,3.68
2023-04-26T00:32:57.868Z,3.59
2023-04-26T00:33:57.792Z,3.53
2023-04-26T00:34:57.799Z,3.46
2023-04-26T00:35:57.769Z,3.41
2023-04-26T00:36:57.757Z,3.41
2023-04-26T00:37:57.747Z,3.35
2023-04-26T00:38:57.764Z,3.32
2023-04-26T00:39:57.722Z,3.33
2023-04-26T00:40:57.730Z,3.36
2023-04-26T00:41:57.694Z,3.32
2023-04-26T00:42:57.678Z,3.33
2023-04-26T00:43:57.679Z,3.39
2023-04-26T00:44:57.833Z,3.41
2023-04-26T00:45:57.681Z,3.46
2023-04-26T00:46:57.639Z,3.24
2023-04-26T00:47:57.643Z,3.26
2023-04-26T00:48:57.605Z,3.26
2023-04-26T00:49:57.592Z,3.29
2023-04-26T00:50:57.582Z,3.23
2023-04-26T00:51:57.568Z,3.18
2023-04-26T00:52:57.556Z,3.14
2023-04-26T00:53:57.542Z,3.21
2023-04-26T00:54:57.579Z,3.31
2023-04-26T00:55:57.612Z,3.36
2023-04-26T00:56:57.520Z,3.32
2023-04-26T00:57:57.497Z,3.33
2023-04-26T00:58:57.484Z,3.39
2023-04-26T00:59:57.468Z,3.42
2023-04-26T01:00:57.492Z,3.41
2023-04-26T01:01:57.494Z,3.49
2023-04-26T01:02:57.553Z,3.42
2023-04-26T01:03:57.593Z,3.32
2023-04-26T01:04:57.417Z,3.29
2023-04-26T01:05:57.393Z,3.24
2023-04-26T01:06:57.373Z,3.20
2023-04-26T01:07:57.363Z,3.20
2023-04-26T01:08:57.351Z,3.11
2023-04-26T01:09:57.338Z,3.08
2023-04-26T01:10:57.353Z,3.08
2023-04-26T01:11:57.313Z,3.02
2023-04-26T01:12:57.303Z,3.02
2023-04-26T01:13:57.290Z,2.99
2023-04-26T01:14:57.275Z,2.90
2023-04-26T01:15:57.267Z,2.89
2023-04-26T01:16:57.334Z,2.87
2023-04-26T01:17:57.343Z,2.89
2023-04-26T01:18:57.223Z,2.95
2023-04-26T01:19:57.211Z,3.10
2023-04-26T01:20:57.218Z,3.11
2023-04-26T01:21:57.182Z,3.10
2023-04-26T01:22:57.173Z,3.03
2023-04-26T01:23:57.158Z,3.02
2023-04-26T01:24:57.157Z,2.96
2023-04-26T01:25:57.133Z,2.96
2023-04-26T01:26:57.150Z,2.97
2023-04-26T01:27:57.107Z,2.90
2023-04-26T01:28:57.095Z,2.84
2023-04-26T01:29:57.083Z,2.79
2023-04-26T01:30:57.107Z,2.77
2023-04-26T01:31:57.058Z,2.62
2023-04-26T01:32:57.087Z,2.58
2023-04-26T01:33:57.031Z,2.55
2023-04-26T01:34:57.015Z,2.51
2023-04-26T01:35:57.004Z,2.40
2023-04-26T01:36:57.000Z,2.27
2023-04-26T01:37:56.982Z,2.27
2023-04-26T01:38:56.970Z,2.20
2023-04-26T01:39:56.953Z,2.11
2023-04-26T01:40:56.943Z,2.16
2023-04-26T01:41:56.930Z,2.19
2023-04-26T01:42:56.947Z,2.16
2023-04-26T01:43:56.905Z,2.20
2023-04-26T01:44:56.897Z,2.16
2023-04-26T01:45:56.912Z,2.15
2023-04-26T01:46:56.865Z,2.17
2023-04-26T01:47:56.909Z,2.17
2023-04-26T01:48:56.842Z,2.05
2023-04-26T01:49:56.826Z,2.01
2023-04-26T01:50:56.813Z,2.04
2023-04-26T01:51:56.807Z,2.15
2023-04-26T01:52:56.793Z,2.20
2023-04-26T01:53:56.784Z,2.30
2023-04-26T01:54:56.764Z,2.35
2023-04-26T01:55:56.755Z,2.41
2023-04-26T01:56:56.738Z,2.41
2023-04-26T01:57:56.727Z,2.44
2023-04-26T01:58:56.735Z,2.47
2023-04-26T01:59:56.697Z,2.47
2023-04-26T02:00:56.691Z,2.42
2023-04-26T02:01:56.738Z,2.41
2023-04-26T02:02:56.728Z,2.44
2023-04-26T02:03:56.647Z,2.45
2023-04-26T02:04:56.697Z,2.44
2023-04-26T02:05:56.625Z,2.47
2023-04-26T02:06:56.621Z,2.38
2023-04-26T02:07:56.601Z,2.40
2023-04-26T02:08:56.583Z,2.37
2023-04-26T02:09:56.578Z,2.37
2023-04-26T02:10:56.594Z,2.37
2023-04-26T02:11:56.552Z,2.35
2023-04-26T02:12:56.541Z,2.30
2023-04-26T02:13:56.529Z,2.30
2023-04-26T02:14:56.535Z,2.33
2023-04-26T02:15:56.512Z,2.38
2023-04-26T02:16:56.488Z,2.33
2023-04-26T02:17:56.485Z,2.26
2023-04-26T02:18:56.462Z,2.26
2023-04-26T02:19:56.454Z,2.23
2023-04-26T02:20:56.438Z,2.20
2023-04-26T02:21:56.434Z,2.19
2023-04-26T02:22:56.415Z,2.20
2023-04-26T02:23:56.411Z,2.17
2023-04-26T02:24:56.388Z,2.13
2023-04-26T02:25:56.432Z,2.09
2023-04-26T02:26:56.378Z,2.17
2023-04-26T02:27:56.356Z,2.16
2023-04-26T02:28:56.337Z,2.26
2023-04-26T02:29:56.328Z,2.34
2023-04-26T02:30:56.359Z,2.40
2023-04-26T02:31:56.347Z,2.41
2023-04-26T02:32:56.305Z,2.40
2023-04-26T02:33:56.280Z,2.35
2023-04-26T02:34:56.263Z,2.29
2023-04-26T02:35:56.252Z,2.29
2023-04-26T02:36:56.240Z,2.33
2023-04-26T02:37:56.222Z,2.24
2023-04-26T02:38:56.212Z,2.27
2023-04-26T02:39:56.207Z,2.20
2023-04-26T02:40:56.186Z,2.27
2023-04-26T02:41:56.180Z,2.23
2023-04-26T02:42:56.162Z,2.23
2023-04-26T02:43:56.148Z,2.22
2023-04-26T02:44:56.142Z,2.22
2023-04-26T02:45:56.120Z,2.20
2023-04-26T02:46:56.190Z,2.22
2023-04-26T02:47:56.195Z,2.20
2023-04-26T02:48:56.086Z,2.24
2023-04-26T02:49:56.073Z,2.29
2023-04-26T02:50:56.057Z,2.27
2023-04-26T02:51:56.045Z,2.29
2023-04-26T02:52:56.033Z,2.24
2023-04-26T02:53:56.019Z,2.24
2023-04-26T02:54:56.049Z,2.26
2023-04-26T02:55:56.000Z,2.23
2023-04-26T02:56:55.980Z,2.17
2023-04-26T02:57:55.967Z,2.15
2023-04-26T02:58:55.956Z,2.20
2023-04-26T02:59:55.942Z,2.15
2023-04-26T03:00:55.951Z,2.19
2023-04-26T03:01:55.972Z,2.15
2023-04-26T03:02:56.116Z,2.13
2023-04-26T03:03:55.978Z,2.13
2023-04-26T03:04:55.899Z,2.04
2023-04-26T03:05:55.866Z,2.09
2023-04-26T03:06:55.856Z,2.04
2023-04-26T03:07:55.840Z,1.99
2023-04-26T03:08:55.829Z,1.87
2023-04-26T03:09:55.826Z,1.84
2023-04-26T03:10:55.805Z,1.84
2023-04-26T03:11:55.790Z,1.95
2023-04-26T03:12:55.777Z,1.93
2023-04-26T03:13:55.764Z,1.83
2023-04-26T03:14:55.771Z,1.80
2023-04-26T03:15:55.741Z,1.77
2023-04-26T03:16:55.882Z,1.84
2023-04-26T03:17:55.771Z,1.81
2023-04-26T03:18:55.728Z,1.83
2023-04-26T03:19:55.694Z,1.83
2023-04-26T03:20:55.680Z,1.83
2023-04-26T03:21:55.668Z,1.87
2023-04-26T03:22:55.655Z,1.86
2023-04-26T03:23:55.647Z,1.95
2023-04-26T03:24:55.632Z,1.98
2023-04-26T03:25:55.626Z,1.98
2023-04-26T03:26:55.617Z,1.95
2023-04-26T03:27:55.593Z,1.88
2023-04-26T03:28:55.585Z,1.86
2023-04-26T03:29:55.567Z,1.81
2023-04-26T03:30:55.560Z,1.72
2023-04-26T03:31:55.669Z,1.68
2023-04-26T03:32:55.561Z,1.68
2023-04-26T03:33:55.517Z,1.72
2023-04-26T03:34:55.534Z,1.69
2023-04-26T03:35:55.492Z,1.59
2023-04-26T03:36:55.496Z,1.66
2023-04-26T03:37:57.949Z,1.66
2023-04-26T03:38:55.453Z,1.70
2023-04-26T03:39:55.441Z,1.72
2023-04-26T03:40:55.434Z,1.79
2023-04-26T03:41:55.425Z,1.73
2023-04-26T03:42:55.432Z,1.72
2023-04-26T03:43:55.409Z,1.70
2023-04-26T03:44:55.384Z,1.70
2023-04-26T03:45:55.425Z,1.69
2023-04-26T03:46:55.358Z,1.72
2023-04-26T03:47:55.513Z,1.59
2023-04-26T03:48:55.369Z,1.68
2023-04-26T03:49:55.319Z,1.65
2023-04-26T03:50:55.331Z,1.73
2023-04-26T03:51:55.307Z,1.70
2023-04-26T03:52:55.282Z,1.66
2023-04-26T03:53:55.272Z,1.65
2023-04-26T03:54:55.256Z,1.62
2023-04-26T03:55:55.245Z,1.63
2023-04-26T03:56:55.245Z,1.54
2023-04-26T03:57:55.230Z,1.52
2023-04-26T03:58:55.204Z,1.48
2023-04-26T03:59:55.186Z,1.54
2023-04-26T04:00:55.178Z,1.51
2023-04-26T04:01:55.167Z,1.54
2023-04-26T04:02:55.246Z,1.45
2023-04-26T04:03:55.444Z,1.50
2023-04-26T04:04:55.379Z,1.41
2023-04-26T04:05:55.115Z,1.41
2023-04-26T04:06:55.128Z,1.48
2023-04-26T04:07:55.090Z,1.52
2023-04-26T04:08:55.351Z,1.47
2023-04-26T04:09:55.064Z,1.50
2023-04-26T04:10:55.055Z,1.52
2023-04-26T04:11:55.059Z,1.58
2023-04-26T04:12:55.028Z,1.52
2023-04-26T04:13:55.065Z,1.48
2023-04-26T04:14:55.003Z,1.44
2023-04-26T04:15:55.062Z,1.47
2023-04-26T04:16:55.070Z,1.44
2023-04-26T04:17:55.010Z,1.45
2023-04-26T04:18:55.273Z,1.50
2023-04-26T04:19:54.950Z,1.41
2023-04-26T04:20:54.926Z,1.34
2023-04-26T04:21:54.921Z,1.37
2023-04-26T04:22:54.922Z,1.40
2023-04-26T04:23:54.895Z,1.37
2023-04-26T04:24:54.878Z,1.33
2023-04-26T04:25:54.862Z,1.36
2023-04-26T04:26:54.860Z,1.36
2023-04-26T04:27:54.843Z,1.36
2023-04-26T04:28:54.975Z,1.40
2023-04-26T04:29:54.812Z,1.44
2023-04-26T04:30:54.833Z,1.45
2023-04-26T04:31:54.785Z,1.44
2023-04-26T04:32:54.820Z,1.44
2023-04-26T04:33:54.761Z,1.34
2023-04-26T04:34:54.745Z,1.34
2023-04-26T04:35:54.738Z,1.40
2023-04-26T04:36:54.732Z,1.37
2023-04-26T04:37:54.711Z,1.40
2023-04-26T04:38:54.993Z,1.42
2023-04-26T04:39:54.689Z,1.42
2023-04-26T04:40:54.671Z,1.41
2023-04-26T04:41:54.666Z,1.45
2023-04-26T04:42:54.649Z,1.44
2023-04-26T04:43:54.646Z,1.52
2023-04-26T04:44:54.631Z,1.44
2023-04-26T04:45:54.614Z,1.40
2023-04-26T04:46:54.652Z,1.27
2023-04-26T04:47:54.629Z,1.30
2023-04-26T04:48:54.837Z,1.32
2023-04-26T04:49:54.565Z,1.34
2023-04-26T04:50:54.551Z,1.40
2023-04-26T04:51:54.536Z,1.48
2023-04-26T04:52:54.523Z,1.44
2023-04-26T04:53:54.514Z,1.42
2023-04-26T04:54:54.522Z,1.47
2023-04-26T04:55:54.485Z,1.51
2023-04-26T04:56:54.473Z,1.50
2023-04-26T04:57:54.459Z,1.60
2023-04-26T04:58:54.592Z,1.62
2023-04-26T04:59:54.439Z,1.68
2023-04-26T05:00:54.430Z,1.69
2023-04-26T05:02:54.713Z,1.81
2023-04-26T05:03:54.776Z,1.87
2023-04-26T05:04:54.437Z,1.95
2023-04-26T05:05:54.362Z,2.08
2023-04-26T05:06:54.355Z,2.15
2023-04-26T05:07:54.338Z,2.23
2023-04-26T05:08:54.329Z,2.16
2023-04-26T05:09:54.314Z,2.13
2023-04-26T05:10:54.325Z,2.20
2023-04-26T05:11:54.288Z,2.27
2023-04-26T05:12:54.293Z,2.35
2023-04-26T05:13:54.569Z,2.51
2023-04-26T05:14:54.250Z,2.59
2023-04-26T05:15:54.309Z,2.77
2023-04-26T05:16:54.273Z,3.03
2023-04-26T05:17:54.216Z,3.36
2023-04-26T05:18:54.202Z,3.60
2023-04-26T05:19:54.185Z,3.82
2023-04-26T05:20:54.181Z,4.14
2023-04-26T05:21:54.170Z,4.44
2023-04-26T05:22:54.153Z,4.70
2023-04-26T05:23:54.350Z,4.93
2023-04-26T05:24:54.128Z,5.29
2023-04-26T05:25:54.105Z,5.48
2023-04-26T05:26:54.121Z,5.63
2023-04-26T05:27:54.081Z,5.63
2023-04-26T05:28:54.097Z,5.82
2023-04-26T05:29:54.057Z,5.82
2023-04-26T05:30:54.047Z,5.83
2023-04-26T05:31:54.092Z,6.03
2023-04-26T05:32:54.092Z,6.26
2023-04-26T05:33:54.269Z,6.78
2023-04-26T05:34:53.999Z,7.28
2023-04-26T05:35:53.982Z,6.84
2023-04-26T05:36:53.972Z,6.39
2023-04-26T05:37:53.957Z,6.36
2023-04-26T05:38:53.945Z,6.66
2023-04-26T05:39:53.929Z,6.73
2023-04-26T05:40:53.922Z,6.98
2023-04-26T05:41:53.910Z,7.32
2023-04-26T05:42:53.914Z,7.61
2023-04-26T05:43:54.130Z,7.92
2023-04-26T05:44:53.862Z,8.21
2023-04-26T05:45:53.914Z,8.84
2023-04-26T05:46:53.836Z,9.38
2023-04-26T05:47:53.893Z,8.95
2023-04-26T05:48:53.808Z,8.52
2023-04-26T05:49:53.828Z,8.76
2023-04-26T05:50:53.785Z,9.07
2023-04-26T05:51:53.776Z,8.89
2023-04-26T05:52:53.756Z,8.47
2023-04-26T05:53:54.032Z,8.59
2023-04-26T05:54:53.730Z,9.19
2023-04-26T05:55:53.725Z,9.73
2023-04-26T05:56:53.706Z,10.29
2023-04-26T05:57:53.735Z,10.54
2023-04-26T05:58:53.710Z,9.87
2023-04-26T05:59:53.676Z,8.96
2023-04-26T06:00:53.650Z,8.94
2023-04-26T06:01:53.788Z,9.25
2023-04-26T06:02:53.707Z,9.55
2023-04-26T06:03:55.958Z,9.22
2023-04-26T06:04:53.841Z,9.32
2023-04-26T06:05:53.660Z,9.97
2023-04-26T06:06:53.574Z,10.36
2023-04-26T06:07:53.560Z,10.78
2023-04-26T06:08:53.549Z,11.36
2023-04-26T06:09:53.540Z,11.86
2023-04-26T06:10:53.521Z,12.53
2023-04-26T06:11:53.511Z,12.97
2023-04-26T06:12:53.503Z,13.11
2023-04-26T06:13:53.724Z,13.15
2023-04-26T06:14:53.552Z,12.90
2023-04-26T06:15:53.461Z,12.97
2023-04-26T06:16:53.481Z,13.07
2023-04-26T06:17:53.542Z,13.11
2023-04-26T06:18:53.420Z,13.32
2023-04-26T06:19:53.418Z,13.22
2023-04-26T06:20:53.392Z,13.48
2023-04-26T06:21:53.381Z,13.77
2023-04-26T06:22:53.375Z,13.59
2023-04-26T06:23:53.673Z,13.95
2023-04-26T06:24:53.343Z,13.61
2023-04-26T06:25:53.335Z,12.33
2023-04-26T06:26:53.311Z,11.67
2023-04-26T06:27:53.299Z,10.93
2023-04-26T06:28:53.287Z,11.44
2023-04-26T06:29:53.279Z,11.06
2023-04-26T06:30:53.330Z,10.54
2023-04-26T06:31:53.264Z,10.62
2023-04-26T06:32:53.298Z,10.69
2023-04-26T06:33:53.545Z,10.25
2023-04-26T06:34:53.214Z,10.38
2023-04-26T06:35:53.212Z,10.51
2023-04-26T06:36:53.184Z,10.11
2023-04-26T06:37:53.172Z,9.65
2023-04-26T06:38:53.160Z,9.38
2023-04-26T06:39:53.153Z,10.25
2023-04-26T06:40:53.131Z,11.09
2023-04-26T06:41:53.126Z,11.94
2023-04-26T06:42:53.105Z,12.70
2023-04-26T06:43:53.404Z,12.68
2023-04-26T06:44:53.080Z,12.61
2023-04-26T06:45:53.168Z,11.83
2023-04-26T06:46:53.266Z,11.86
2023-04-26T06:47:53.105Z,12.41
2023-04-26T06:48:53.029Z,12.41
2023-04-26T06:49:53.016Z,13.05
2023-04-26T06:50:53.002Z,13.26
2023-04-26T06:51:53.014Z,13.68
2023-04-26T06:52:52.978Z,13.53
2023-04-26T06:53:53.205Z,13.66
2023-04-26T06:54:56.897Z,14.12
2023-04-26T06:55:52.937Z,14.17
2023-04-26T06:56:52.928Z,13.35
2023-04-26T06:57:52.927Z,13.05
2023-04-26T06:58:52.898Z,13.30
2023-04-26T06:59:52.888Z,14.12
2023-04-26T07:00:52.870Z,13.56
2023-04-26T07:01:52.939Z,13.32
2023-04-26T07:02:53.128Z,12.71
2023-04-26T07:03:53.266Z,12.22
2023-04-26T07:04:53.012Z,12.61
2023-04-26T07:05:52.807Z,12.56
2023-04-26T07:06:52.815Z,13.11
2023-04-26T07:07:52.783Z,13.10
2023-04-26T07:08:53.454Z,13.88
2023-04-26T07:09:52.766Z,15.08
2023-04-26T07:10:52.752Z,15.50
2023-04-26T07:11:52.739Z,15.00
2023-04-26T07:12:52.721Z,14.94
2023-04-26T07:13:52.982Z,15.57
2023-04-26T07:14:52.694Z,16.24
2023-04-26T07:15:52.733Z,16.80
2023-04-26T07:16:52.672Z,16.24
2023-04-26T07:17:52.724Z,14.65
2023-04-26T07:18:52.667Z,13.58
2023-04-26T07:19:54.017Z,14.42
2023-04-26T07:20:52.628Z,15.74
2023-04-26T07:21:52.604Z,15.83
2023-04-26T07:22:52.595Z,14.42
2023-04-26T07:23:53.014Z,13.65
2023-04-26T07:24:52.570Z,13.61
2023-04-26T07:25:52.556Z,13.20
2023-04-26T07:26:52.545Z,14.03
2023-04-26T07:27:52.532Z,15.22
2023-04-26T07:28:52.517Z,16.04
2023-04-26T07:29:52.511Z,16.67
2023-04-26T07:30:52.491Z,17.37
2023-04-26T07:31:52.553Z,17.96
2023-04-26T07:32:52.510Z,18.07
2023-04-26T07:33:52.819Z,18.55
2023-04-26T07:34:52.704Z,18.50
2023-04-26T07:35:52.430Z,18.25
2023-04-26T07:36:52.421Z,17.46
2023-04-26T07:37:52.404Z,17.01
2023-04-26T07:38:52.393Z,16.85
2023-04-26T07:39:52.382Z,17.41
2023-04-26T07:40:52.369Z,17.78
2023-04-26T07:41:52.365Z,17.78
2023-04-26T07:42:52.345Z,17.85
2023-04-26T07:43:52.525Z,17.99
2023-04-26T07:44:52.323Z,18.51
2023-04-26T07:45:52.313Z,18.65
2023-04-26T07:46:52.290Z,18.42
2023-04-26T07:47:52.346Z,18.91
2023-04-26T07:48:52.266Z,19.43
2023-04-26T07:49:52.253Z,20.21
2023-04-26T07:50:52.315Z,20.26
2023-04-26T07:51:52.240Z,20.06
2023-04-26T07:52:52.218Z,19.81
2023-04-26T07:53:52.447Z,19.25
2023-04-26T07:54:52.187Z,18.06
2023-04-26T07:55:52.184Z,16.97
2023-04-26T07:56:52.175Z,15.80
2023-04-26T07:57:52.155Z,15.13
2023-04-26T07:58:52.136Z,14.64
2023-04-26T07:59:52.122Z,14.29
2023-04-26T08:00:52.120Z,14.61
2023-04-26T08:01:52.136Z,15.12
2023-04-26T08:02:52.411Z,15.57
2023-04-26T08:03:52.350Z,15.78
2023-04-26T08:04:52.220Z,16.12
2023-04-26T08:05:52.323Z,16.30
2023-04-26T08:06:52.084Z,16.22
2023-04-26T08:07:52.039Z,15.65
2023-04-26T08:08:52.008Z,15.53
2023-04-26T08:09:51.992Z,15.96
2023-04-26T08:10:51.981Z,16.20
2023-04-26T08:11:51.982Z,16.02
2023-04-26T08:12:51.954Z,15.60
2023-04-26T08:13:52.174Z,15.22
2023-04-26T08:14:51.928Z,14.85
2023-04-26T08:15:51.920Z,15.37
2023-04-26T08:16:52.109Z,16.32
2023-04-26T08:17:51.905Z,17.12
2023-04-26T08:18:51.894Z,17.48
2023-04-26T08:19:51.866Z,17.81
2023-04-26T08:20:51.849Z,17.73
2023-04-26T08:21:51.842Z,17.48
2023-04-26T08:22:51.849Z,17.61
2023-04-26T08:23:52.043Z,17.98
2023-04-26T08:24:51.798Z,18.09
2023-04-26T08:25:51.787Z,17.74
2023-04-26T08:26:51.777Z,17.25
2023-04-26T08:27:51.757Z,17.18
2023-04-26T08:28:51.750Z,17.07
2023-04-26T08:29:51.739Z,17.00
2023-04-26T08:30:51.755Z,17.18
2023-04-26T08:31:51.709Z,16.84
2023-04-26T08:32:51.716Z,16.42
2023-04-26T08:33:51.982Z,16.23
2023-04-26T08:34:51.672Z,16.85
2023-04-26T08:35:51.672Z,17.52
2023-04-26T08:36:51.658Z,18.19
2023-04-26T08:37:51.651Z,18.28
2023-04-26T08:38:51.654Z,18.99
2023-04-26T08:39:51.614Z,19.32
2023-04-26T08:40:51.590Z,19.18
2023-04-26T08:41:51.581Z,19.17
2023-04-26T08:42:51.581Z,18.94
2023-04-26T08:43:51.888Z,18.69
2023-04-26T08:44:51.543Z,18.48
2023-04-26T08:45:51.562Z,18.16
2023-04-26T08:46:51.524Z,17.71
2023-04-26T08:47:51.632Z,17.71
2023-04-26T08:48:51.494Z,17.91
2023-04-26T08:49:51.480Z,18.06
2023-04-26T08:50:51.469Z,18.22
2023-04-26T08:51:51.454Z,18.51
2023-04-26T08:52:51.501Z,18.06
2023-04-26T08:53:51.685Z,18.29
2023-04-26T08:54:51.569Z,18.63
2023-04-26T08:55:51.432Z,18.80
2023-04-26T08:56:51.391Z,18.44
2023-04-26T08:57:51.380Z,17.80
2023-04-26T08:58:51.367Z,17.23
2023-04-26T08:59:51.346Z,17.18
2023-04-26T09:00:51.337Z,17.07
2023-04-26T09:01:51.377Z,17.15
2023-04-26T09:02:51.549Z,16.97
2023-04-26T09:03:51.780Z,16.75
2023-04-26T09:04:51.456Z,16.29
2023-04-26T09:05:51.265Z,16.12
2023-04-26T09:06:51.258Z,16.27
2023-04-26T09:07:51.290Z,16.01
2023-04-26T09:08:51.234Z,14.87
2023-04-26T09:09:51.217Z,14.46
2023-04-26T09:10:51.228Z,14.15
2023-04-26T09:11:51.198Z,14.07
2023-04-26T09:12:51.181Z,14.18
2023-04-26T09:13:51.467Z,14.14
2023-04-26T09:14:51.156Z,14.14
2023-04-26T09:15:51.221Z,14.09
2023-04-26T09:16:51.130Z,14.37
2023-04-26T09:17:51.178Z,14.39
2023-04-26T09:18:51.226Z,14.76
2023-04-26T09:19:51.094Z,14.40
2023-04-26T09:20:51.074Z,14.58
2023-04-26T09:21:51.062Z,14.85
2023-04-26T09:22:51.055Z,14.64
2023-04-26T09:23:51.043Z,14.90
2023-04-26T09:24:51.028Z,15.24
2023-04-26T09:25:51.011Z,15.15
2023-04-26T09:26:51.030Z,15.30
2023-04-26T09:27:50.988Z,14.98
2023-04-26T09:28:51.309Z,15.12
2023-04-26T09:29:50.966Z,15.12
2023-04-26T09:30:50.968Z,14.65
2023-04-26T09:31:50.984Z,13.80
2023-04-26T09:32:50.967Z,12.89
2023-04-26T09:33:50.903Z,12.86
2023-04-26T09:34:50.896Z,12.82
2023-04-26T09:35:50.876Z,13.08
2023-04-26T09:36:50.865Z,13.54
2023-04-26T09:37:58.424Z,13.78
2023-04-26T09:38:50.989Z,13.51
2023-04-26T09:39:50.827Z,13.45
2023-04-26T09:40:50.856Z,14.37
2023-04-26T09:41:50.799Z,14.54
2023-04-26T09:42:50.833Z,14.82
2023-04-26T09:43:50.773Z,14.40
2023-04-26T09:44:50.761Z,14.17
2023-04-26T09:45:51.094Z,13.69
2023-04-26T09:46:50.783Z,13.80
2023-04-26T09:47:50.750Z,13.44
2023-04-26T09:48:50.964Z,13.94
2023-04-26T09:49:50.704Z,14.50
2023-04-26T09:50:50.688Z,15.05
2023-04-26T09:51:50.675Z,15.64
2023-04-26T09:52:50.659Z,15.90
2023-04-26T09:53:50.651Z,15.84
2023-04-26T09:54:50.652Z,15.54
2023-04-26T09:55:50.620Z,15.51
2023-04-26T09:56:50.605Z,15.64
2023-04-26T10:00:23.723Z,15.12
2023-04-26T10:01:23.232Z,15.16
2023-04-26T10:02:23.308Z,14.91
2023-04-26T10:03:23.403Z,15.06
2023-04-26T10:04:23.203Z,15.13
2023-04-26T10:05:23.135Z,15.53
2023-04-26T10:06:23.121Z,15.51
2023-04-26T10:07:23.113Z,16.05
2023-04-26T10:08:23.091Z,16.59
2023-04-26T10:09:23.082Z,16.51
2023-04-26T10:10:23.068Z,16.07
2023-04-26T10:11:23.058Z,16.19
2023-04-26T10:12:23.059Z,16.23
2023-04-26T10:13:23.042Z,16.33
2023-04-26T10:14:23.017Z,16.33
2023-04-26T10:15:23.001Z,16.51
2023-04-26T10:16:23.078Z,16.48
2023-04-26T10:17:23.072Z,15.56
2023-04-26T10:18:22.968Z,15.12
2023-04-26T10:19:22.957Z,15.65
2023-04-26T10:20:22.944Z,16.32
2023-04-26T10:21:22.923Z,16.66
2023-04-26T10:22:22.924Z,17.12
2023-04-26T10:23:22.902Z,16.63
2023-04-26T10:24:22.893Z,16.05
2023-04-26T10:25:22.875Z,16.47
2023-04-26T10:26:22.864Z,16.72
2023-04-26T10:27:22.853Z,15.93
2023-04-26T10:28:22.842Z,15.93
2023-04-26T10:29:22.832Z,16.26
2023-04-26T10:30:22.815Z,15.96
2023-04-26T10:31:22.843Z,15.06
2023-04-26T10:32:22.897Z,14.52
2023-04-26T10:33:22.820Z,14.25
2023-04-26T10:34:22.764Z,14.28
2023-04-26T10:35:22.767Z,14.87
2023-04-26T10:36:22.738Z,15.74
2023-04-26T10:37:22.735Z,15.96
2023-04-26T10:38:22.722Z,16.44
2023-04-26T10:39:22.703Z,16.45
2023-04-26T10:40:22.692Z,16.82
2023-04-26T10:41:22.677Z,17.33
2023-04-26T10:42:24.293Z,18.04
2023-04-26T10:43:24.324Z,18.04
2023-04-26T10:44:22.644Z,18.69
2023-04-26T10:45:22.627Z,19.27
2023-04-26T10:46:22.711Z,19.80
2023-04-26T10:47:22.723Z,19.53
2023-04-26T10:48:22.660Z,18.66
2023-04-26T10:49:24.226Z,18.26
2023-04-26T10:50:22.567Z,18.37
2023-04-26T10:51:22.558Z,18.29
2023-04-26T10:52:22.537Z,18.60
2023-04-26T10:53:22.527Z,18.92
2023-04-26T10:54:22.514Z,17.62
2023-04-26T10:55:24.339Z,17.11
2023-04-26T10:56:22.489Z,16.47
2023-04-26T10:57:22.486Z,15.26
2023-04-26T10:58:22.462Z,15.94
2023-04-26T10:59:39.748Z,15.69
2023-04-26T11:00:24.440Z,16.09
2023-04-26T11:01:22.456Z,16.12
2023-04-26T11:02:22.480Z,16.91
2023-04-26T11:03:22.564Z,17.78
2023-04-26T11:04:22.629Z,18.25
2023-04-26T11:05:24.861Z,18.70
2023-04-26T11:06:22.363Z,18.84
2023-04-26T11:07:22.351Z,19.40
2023-04-26T11:08:22.337Z,19.84
2023-04-26T11:09:22.326Z,20.05
2023-04-26T11:10:22.315Z,19.65
2023-04-26T11:11:22.301Z,19.68
2023-04-26T11:12:22.304Z,19.28
2023-04-26T11:13:22.282Z,19.65
2023-04-26T11:14:22.261Z,20.08
2023-04-26T11:15:22.252Z,20.68
2023-04-26T11:16:22.276Z,21.22
2023-04-26T11:17:22.309Z,21.19
2023-04-26T11:18:22.210Z,21.46
2023-04-26T11:19:22.207Z,21.34
2023-04-26T11:20:22.226Z,21.32
2023-04-26T11:21:22.179Z,20.71
2023-04-26T11:22:22.169Z,19.49
2023-04-26T11:23:22.154Z,19.03
2023-04-26T11:24:22.140Z,18.41
2023-04-26T11:25:22.127Z,17.99
2023-04-26T11:26:22.108Z,17.33
2023-04-26T11:27:22.103Z,16.56
2023-04-26T11:28:22.091Z,16.60
2023-04-26T11:29:22.088Z,16.48
2023-04-26T11:30:22.064Z,16.45
2023-04-26T11:31:22.096Z,16.72
2023-04-26T11:32:22.043Z,17.33
2023-04-26T11:33:22.031Z,18.17
2023-04-26T11:34:22.013Z,18.87
2023-04-26T11:35:22.006Z,18.98
2023-04-26T11:36:22.020Z,19.35
2023-04-26T11:37:21.979Z,20.05
2023-04-26T11:38:21.968Z,19.84
2023-04-26T11:39:21.950Z,19.03
2023-04-26T11:40:21.937Z,17.85
2023-04-26T11:41:21.926Z,16.65
2023-04-26T11:42:21.911Z,16.96
2023-04-26T11:43:21.964Z,15.97
2023-04-26T11:44:21.896Z,15.30
2023-04-26T11:45:21.876Z,15.90
2023-04-26T11:46:21.917Z,16.88
2023-04-26T11:47:21.852Z,17.62
2023-04-26T11:48:21.900Z,18.52
2023-04-26T11:49:21.825Z,19.65
2023-04-26T11:50:21.825Z,19.54
2023-04-26T11:51:21.799Z,19.20
2023-04-26T11:52:21.805Z,18.85
2023-04-26T11:53:21.782Z,19.06
2023-04-26T11:54:21.761Z,19.42
2023-04-26T11:55:21.750Z,18.36
2023-04-26T11:56:21.739Z,18.80
2023-04-26T11:57:21.724Z,18.60
2023-04-26T11:58:21.723Z,18.63
2023-04-26T11:59:21.699Z,18.76
2023-04-26T12:00:21.684Z,18.44
2023-04-26T12:01:21.679Z,18.75
2023-04-26T12:02:21.765Z,19.20
2023-04-26T12:03:21.917Z,19.27
2023-04-26T12:04:21.900Z,18.65
2023-04-26T12:05:21.661Z,19.06
2023-04-26T12:06:21.622Z,19.76
2023-04-26T12:07:21.596Z,19.65
2023-04-26T12:08:21.625Z,19.45
2023-04-26T12:09:21.578Z,19.72
2023-04-26T12:10:21.557Z,20.33
2023-04-26T12:11:21.547Z,20.53
2023-04-26T12:12:21.531Z,20.65
2023-04-26T12:13:21.518Z,21.00
2023-04-26T12:14:21.506Z,21.19
2023-04-26T12:15:21.493Z,21.03
2023-04-26T12:16:26.720Z,21.06
2023-04-26T12:17:21.578Z,20.91
2023-04-26T12:18:21.514Z,20.93
2023-04-26T12:19:21.441Z,21.25
2023-04-26T12:20:21.425Z,20.71
2023-04-26T12:21:21.416Z,20.47
2023-04-26T12:22:21.409Z,20.61
2023-04-26T12:23:21.392Z,20.73
2023-04-26T12:24:21.417Z,20.24
2023-04-26T12:25:21.366Z,19.58
2023-04-26T12:26:21.351Z,18.47
2023-04-26T12:27:21.338Z,17.51
2023-04-26T12:28:21.342Z,17.33
2023-04-26T12:29:21.315Z,18.02
2023-04-26T12:30:21.298Z,18.87
2023-04-26T12:31:21.334Z,18.98
2023-04-26T12:32:22.659Z,18.65
2023-04-26T12:33:21.338Z,18.22
2023-04-26T12:34:21.258Z,17.54
2023-04-26T12:35:21.234Z,18.19
2023-04-26T12:36:21.243Z,18.72
2023-04-26T12:37:21.211Z,18.91
2023-04-26T12:38:21.202Z,19.39
2023-04-26T12:39:21.179Z,19.28
2023-04-26T12:40:21.352Z,19.70
2023-04-26T12:41:21.156Z,20.49
2023-04-26T12:42:21.147Z,21.09
2023-04-26T12:43:21.130Z,21.56
2023-04-26T12:44:22.512Z,22.42
2023-04-26T12:45:21.104Z,22.19
2023-04-26T12:46:21.137Z,22.32
2023-04-26T12:47:21.094Z,21.89
2023-04-26T12:48:21.097Z,21.56
2023-04-26T12:49:21.079Z,22.35
2023-04-26T12:50:21.039Z,22.82
2023-04-26T12:51:21.067Z,21.99
2023-04-26T12:52:21.016Z,22.04
2023-04-26T12:53:21.019Z,22.67
2023-04-26T12:54:20.990Z,23.10
2023-04-26T12:55:20.981Z,23.37
2023-04-26T12:56:21.029Z,22.80
2023-04-26T12:57:20.954Z,21.83
2023-04-26T12:58:20.941Z,20.94
2023-04-26T12:59:20.925Z,20.54
2023-04-26T13:00:20.917Z,20.14
2023-04-26T13:01:20.934Z,19.64
2023-04-26T13:03:21.042Z,19.45
2023-04-26T13:04:21.015Z,19.45
2023-04-26T13:05:20.854Z,19.13
2023-04-26T13:06:20.840Z,18.60
2023-04-26T13:07:20.831Z,18.85
2023-04-26T13:08:20.816Z,17.92
2023-04-26T13:09:20.802Z,18.09